sensor_id;sensor_type;location;lat;lon;timestamp;P1;durP1;ratioP1;P2;durP2;ratioP2
23702;SDS011;12030;50.376;8.762;2022-11-14T00:00:20;5.50;;;4.63;;
23702;SDS011;12030;50.376;8.762;2022-11-14T00:02:46;5.60;;;4.17;;
23702;SDS011;12030;50.376;8.762;2022-11-14T00:05:12;7.93;;;4.67;;
23702;SDS011;12030;50.376;8.762;2022-11-14T00:07:37;8.67;;;5.07;;
23702;SDS011;12030;50.376;8.762;2022-11-14T00:10:03;5.83;;;4.90;;
23702;SDS011;12030;50.376;8.762;2022-11-14T00:12:29;6.07;;;4.77;;
23702;SDS011;12030;50.376;8.762;2022-11-14T00:14:55;6.67;;;4.33;;
23702;SDS011;12030;50.376;8.762;2022-11-14T00:17:20;6.30;;;5.13;;
23702;SDS011;12030;50.376;8.762;2022-11-14T00:19:46;6.17;;;5.03;;
23702;SDS011;12030;50.376;8.762;2022-11-14T00:22:11;6.17;;;4.43;;
23702;SDS011;12030;50.376;8.762;2022-11-14T00:24:37;5.57;;;4.17;;
23702;SDS011;12030;50.376;8.762;2022-11-14T00:27:03;6.53;;;4.53;;
23702;SDS011;12030;50.376;8.762;2022-11-14T00:29:28;5.30;;;4.63;;
23702;SDS011;12030;50.376;8.762;2022-11-14T00:31:54;5.83;;;4.50;;
23702;SDS011;12030;50.376;8.762;2022-11-14T00:34:19;8.07;;;4.40;;
23702;SDS011;12030;50.376;8.762;2022-11-14T00:36:45;8.73;;;5.70;;
23702;SDS011;12030;50.376;8.762;2022-11-14T00:39:13;6.67;;;4.40;;
23702;SDS011;12030;50.376;8.762;2022-11-14T00:41:39;4.77;;;3.80;;
23702;SDS011;12030;50.376;8.762;2022-11-14T00:44:05;5.33;;;4.20;;
23702;SDS011;12030;50.376;8.762;2022-11-14T00:46:32;5.87;;;4.77;;
23702;SDS011;12030;50.376;8.762;2022-11-14T00:48:58;8.87;;;4.73;;
23702;SDS011;12030;50.376;8.762;2022-11-14T00:51:23;5.90;;;4.90;;
23702;SDS011;12030;50.376;8.762;2022-11-14T00:53:49;6.30;;;4.80;;
23702;SDS011;12030;50.376;8.762;2022-11-14T00:56:14;6.43;;;4.73;;
23702;SDS011;12030;50.376;8.762;2022-11-14T00:58:40;4.50;;;4.10;;
23702;SDS011;12030;50.376;8.762;2022-11-14T01:01:05;5.67;;;4.60;;
23702;SDS011;12030;50.376;8.762;2022-11-14T01:03:31;5.57;;;4.50;;
23702;SDS011;12030;50.376;8.762;2022-11-14T01:05:56;8.57;;;5.10;;
23702;SDS011;12030;50.376;8.762;2022-11-14T01:08:27;6.77;;;4.30;;
23702;SDS011;12030;50.376;8.762;2022-11-14T01:10:52;6.17;;;4.57;;
23702;SDS011;12030;50.376;8.762;2022-11-14T01:13:18;7.73;;;5.07;;
23702;SDS011;12030;50.376;8.762;2022-11-14T01:15:45;5.00;;;4.27;;
23702;SDS011;12030;50.376;8.762;2022-11-14T01:18:16;7.37;;;4.50;;
23702;SDS011;12030;50.376;8.762;2022-11-14T01:20:44;5.30;;;4.67;;
23702;SDS011;12030;50.376;8.762;2022-11-14T01:23:11;6.63;;;4.70;;
23702;SDS011;12030;50.376;8.762;2022-11-14T01:25:39;8.20;;;5.23;;
23702;SDS011;12030;50.376;8.762;2022-11-14T01:28:09;6.07;;;4.43;;
23702;SDS011;12030;50.376;8.762;2022-11-14T01:30:39;6.53;;;4.57;;
23702;SDS011;12030;50.376;8.762;2022-11-14T01:33:05;5.37;;;4.40;;
23702;SDS011;12030;50.376;8.762;2022-11-14T01:35:32;8.93;;;5.10;;
23702;SDS011;12030;50.376;8.762;2022-11-14T01:37:58;5.57;;;4.43;;
23702;SDS011;12030;50.376;8.762;2022-11-14T01:40:24;5.03;;;4.53;;
23702;SDS011;12030;50.376;8.762;2022-11-14T01:48:34;5.43;;;4.20;;
23702;SDS011;12030;50.376;8.762;2022-11-14T01:53:45;5.93;;;4.73;;
23702;SDS011;12030;50.376;8.762;2022-11-14T01:56:14;7.67;;;4.60;;
23702;SDS011;12030;50.376;8.762;2022-11-14T01:58:44;6.63;;;4.00;;
23702;SDS011;12030;50.376;8.762;2022-11-14T02:01:14;8.63;;;4.27;;
23702;SDS011;12030;50.376;8.762;2022-11-14T02:03:40;5.80;;;4.60;;
23702;SDS011;12030;50.376;8.762;2022-11-14T02:06:08;7.97;;;4.73;;
23702;SDS011;12030;50.376;8.762;2022-11-14T02:08:38;6.13;;;4.50;;
23702;SDS011;12030;50.376;8.762;2022-11-14T02:11:05;6.47;;;4.70;;
23702;SDS011;12030;50.376;8.762;2022-11-14T02:13:33;6.17;;;4.60;;
23702;SDS011;12030;50.376;8.762;2022-11-14T02:16:00;7.83;;;5.37;;
23702;SDS011;12030;50.376;8.762;2022-11-14T02:18:25;6.53;;;4.80;;
23702;SDS011;12030;50.376;8.762;2022-11-14T02:20:51;5.47;;;4.43;;
23702;SDS011;12030;50.376;8.762;2022-11-14T02:23:23;8.67;;;5.20;;
23702;SDS011;12030;50.376;8.762;2022-11-14T02:25:53;5.80;;;4.70;;
23702;SDS011;12030;50.376;8.762;2022-11-14T02:28:19;7.13;;;5.00;;
23702;SDS011;12030;50.376;8.762;2022-11-14T02:30:45;6.23;;;4.60;;
23702;SDS011;12030;50.376;8.762;2022-11-14T02:33:11;8.33;;;4.70;;
23702;SDS011;12030;50.376;8.762;2022-11-14T02:35:37;6.90;;;4.53;;
23702;SDS011;12030;50.376;8.762;2022-11-14T02:38:03;5.73;;;4.90;;
23702;SDS011;12030;50.376;8.762;2022-11-14T02:40:28;6.40;;;4.63;;
23702;SDS011;12030;50.376;8.762;2022-11-14T02:42:54;6.27;;;4.60;;
23702;SDS011;12030;50.376;8.762;2022-11-14T02:45:19;5.90;;;4.13;;
23702;SDS011;12030;50.376;8.762;2022-11-14T02:47:45;6.10;;;4.30;;
23702;SDS011;12030;50.376;8.762;2022-11-14T02:50:11;8.10;;;4.30;;
23702;SDS011;12030;50.376;8.762;2022-11-14T02:52:36;10.63;;;4.77;;
23702;SDS011;12030;50.376;8.762;2022-11-14T02:55:02;4.33;;;3.93;;
23702;SDS011;12030;50.376;8.762;2022-11-14T02:57:29;8.57;;;4.60;;
23702;SDS011;12030;50.376;8.762;2022-11-14T02:59:54;4.57;;;4.10;;
23702;SDS011;12030;50.376;8.762;2022-11-14T03:02:20;6.60;;;4.70;;
23702;SDS011;12030;50.376;8.762;2022-11-14T03:04:46;6.43;;;4.63;;
23702;SDS011;12030;50.376;8.762;2022-11-14T03:07:11;6.57;;;4.70;;
23702;SDS011;12030;50.376;8.762;2022-11-14T03:09:37;5.80;;;4.33;;
23702;SDS011;12030;50.376;8.762;2022-11-14T03:12:02;5.63;;;4.43;;
23702;SDS011;12030;50.376;8.762;2022-11-14T03:14:30;5.60;;;4.13;;
23702;SDS011;12030;50.376;8.762;2022-11-14T03:16:56;5.53;;;4.37;;
23702;SDS011;12030;50.376;8.762;2022-11-14T03:19:22;6.50;;;4.80;;
23702;SDS011;12030;50.376;8.762;2022-11-14T03:21:47;8.47;;;4.73;;
23702;SDS011;12030;50.376;8.762;2022-11-14T03:24:13;6.03;;;4.30;;
23702;SDS011;12030;50.376;8.762;2022-11-14T03:26:38;5.03;;;3.97;;
23702;SDS011;12030;50.376;8.762;2022-11-14T03:29:04;6.13;;;3.90;;
23702;SDS011;12030;50.376;8.762;2022-11-14T03:31:30;5.80;;;4.53;;
23702;SDS011;12030;50.376;8.762;2022-11-14T03:33:55;4.57;;;4.17;;
23702;SDS011;12030;50.376;8.762;2022-11-14T03:36:21;5.80;;;4.77;;
23702;SDS011;12030;50.376;8.762;2022-11-14T03:38:46;5.70;;;4.70;;
23702;SDS011;12030;50.376;8.762;2022-11-14T03:41:12;7.43;;;5.10;;
23702;SDS011;12030;50.376;8.762;2022-11-14T03:43:37;5.67;;;4.60;;
23702;SDS011;12030;50.376;8.762;2022-11-14T03:46:03;5.17;;;4.50;;
23702;SDS011;12030;50.376;8.762;2022-11-14T03:48:29;6.73;;;5.13;;
23702;SDS011;12030;50.376;8.762;2022-11-14T03:50:55;5.67;;;4.80;;
23702;SDS011;12030;50.376;8.762;2022-11-14T03:53:21;9.43;;;5.17;;
23702;SDS011;12030;50.376;8.762;2022-11-14T03:55:47;7.63;;;5.30;;
23702;SDS011;12030;50.376;8.762;2022-11-14T03:58:12;6.40;;;4.97;;
23702;SDS011;12030;50.376;8.762;2022-11-14T04:00:38;7.00;;;4.63;;
23702;SDS011;12030;50.376;8.762;2022-11-14T04:03:03;6.40;;;4.20;;
23702;SDS011;12030;50.376;8.762;2022-11-14T04:05:29;5.67;;;4.50;;
23702;SDS011;12030;50.376;8.762;2022-11-14T04:07:55;8.17;;;5.20;;
23702;SDS011;12030;50.376;8.762;2022-11-14T04:10:20;5.80;;;4.57;;
23702;SDS011;12030;50.376;8.762;2022-11-14T04:12:50;5.87;;;4.87;;
23702;SDS011;12030;50.376;8.762;2022-11-14T04:15:18;7.97;;;4.97;;
23702;SDS011;12030;50.376;8.762;2022-11-14T04:17:44;6.10;;;4.87;;
23702;SDS011;12030;50.376;8.762;2022-11-14T04:20:10;5.63;;;4.43;;
23702;SDS011;12030;50.376;8.762;2022-11-14T04:22:36;6.40;;;4.67;;
23702;SDS011;12030;50.376;8.762;2022-11-14T04:25:02;5.87;;;4.33;;
23702;SDS011;12030;50.376;8.762;2022-11-14T04:27:28;5.07;;;4.30;;
23702;SDS011;12030;50.376;8.762;2022-11-14T04:29:54;7.23;;;4.60;;
23702;SDS011;12030;50.376;8.762;2022-11-14T04:32:19;6.23;;;4.70;;
23702;SDS011;12030;50.376;8.762;2022-11-14T04:34:44;5.93;;;4.53;;
23702;SDS011;12030;50.376;8.762;2022-11-14T04:37:10;4.83;;;4.07;;
23702;SDS011;12030;50.376;8.762;2022-11-14T04:39:36;6.13;;;4.23;;
23702;SDS011;12030;50.376;8.762;2022-11-14T04:42:01;7.13;;;4.53;;
23702;SDS011;12030;50.376;8.762;2022-11-14T04:44:27;6.90;;;4.40;;
23702;SDS011;12030;50.376;8.762;2022-11-14T04:46:52;4.93;;;3.90;;
23702;SDS011;12030;50.376;8.762;2022-11-14T04:49:18;5.67;;;4.73;;
23702;SDS011;12030;50.376;8.762;2022-11-14T04:51:44;5.07;;;4.10;;
23702;SDS011;12030;50.376;8.762;2022-11-14T04:54:09;6.97;;;4.20;;
23702;SDS011;12030;50.376;8.762;2022-11-14T04:56:35;5.67;;;4.13;;
23702;SDS011;12030;50.376;8.762;2022-11-14T04:59:00;6.80;;;4.90;;
23702;SDS011;12030;50.376;8.762;2022-11-14T05:01:26;4.60;;;4.10;;
23702;SDS011;12030;50.376;8.762;2022-11-14T05:03:51;6.17;;;4.67;;
23702;SDS011;12030;50.376;8.762;2022-11-14T05:06:17;5.70;;;4.47;;
23702;SDS011;12030;50.376;8.762;2022-11-14T05:08:42;5.23;;;4.20;;
23702;SDS011;12030;50.376;8.762;2022-11-14T05:11:14;5.70;;;4.50;;
23702;SDS011;12030;50.376;8.762;2022-11-14T05:13:42;7.70;;;4.50;;
23702;SDS011;12030;50.376;8.762;2022-11-14T05:16:08;7.00;;;4.53;;
23702;SDS011;12030;50.376;8.762;2022-11-14T05:18:33;6.57;;;4.40;;
23702;SDS011;12030;50.376;8.762;2022-11-14T05:20:59;5.70;;;4.40;;
23702;SDS011;12030;50.376;8.762;2022-11-14T05:23:25;5.33;;;4.40;;
23702;SDS011;12030;50.376;8.762;2022-11-14T05:26:01;9.87;;;4.90;;
23702;SDS011;12030;50.376;8.762;2022-11-14T05:28:28;6.50;;;4.60;;
23702;SDS011;12030;50.376;8.762;2022-11-14T05:31:01;7.87;;;4.50;;
23702;SDS011;12030;50.376;8.762;2022-11-14T05:33:31;5.27;;;4.07;;
23702;SDS011;12030;50.376;8.762;2022-11-14T05:36:04;6.40;;;4.50;;
23702;SDS011;12030;50.376;8.762;2022-11-14T05:38:32;7.00;;;4.37;;
23702;SDS011;12030;50.376;8.762;2022-11-14T05:40:58;5.90;;;4.77;;
23702;SDS011;12030;50.376;8.762;2022-11-14T05:43:24;8.87;;;4.63;;
23702;SDS011;12030;50.376;8.762;2022-11-14T05:45:52;6.83;;;5.00;;
23702;SDS011;12030;50.376;8.762;2022-11-14T05:48:22;5.53;;;4.47;;
23702;SDS011;12030;50.376;8.762;2022-11-14T05:50:47;7.60;;;5.13;;
23702;SDS011;12030;50.376;8.762;2022-11-14T05:53:17;5.57;;;4.50;;
23702;SDS011;12030;50.376;8.762;2022-11-14T05:55:43;7.67;;;5.30;;
23702;SDS011;12030;50.376;8.762;2022-11-14T05:58:08;6.63;;;5.17;;
23702;SDS011;12030;50.376;8.762;2022-11-14T06:00:34;8.87;;;5.10;;
23702;SDS011;12030;50.376;8.762;2022-11-14T06:02:59;5.97;;;4.53;;
23702;SDS011;12030;50.376;8.762;2022-11-14T06:05:25;6.60;;;4.97;;
23702;SDS011;12030;50.376;8.762;2022-11-14T06:07:54;8.47;;;5.33;;
23702;SDS011;12030;50.376;8.762;2022-11-14T06:10:20;7.33;;;5.30;;
23702;SDS011;12030;50.376;8.762;2022-11-14T06:12:46;11.30;;;5.17;;
23702;SDS011;12030;50.376;8.762;2022-11-14T06:15:12;6.63;;;5.10;;
23702;SDS011;12030;50.376;8.762;2022-11-14T06:17:37;8.53;;;5.10;;
23702;SDS011;12030;50.376;8.762;2022-11-14T06:20:03;6.33;;;4.73;;
23702;SDS011;12030;50.376;8.762;2022-11-14T06:22:29;6.37;;;5.23;;
23702;SDS011;12030;50.376;8.762;2022-11-14T06:24:55;9.77;;;5.33;;
23702;SDS011;12030;50.376;8.762;2022-11-14T06:27:20;7.53;;;5.47;;
23702;SDS011;12030;50.376;8.762;2022-11-14T06:29:46;9.43;;;5.83;;
23702;SDS011;12030;50.376;8.762;2022-11-14T06:32:11;7.73;;;5.70;;
23702;SDS011;12030;50.376;8.762;2022-11-14T06:34:37;9.03;;;5.70;;
23702;SDS011;12030;50.376;8.762;2022-11-14T06:37:03;7.37;;;5.63;;
23702;SDS011;12030;50.376;8.762;2022-11-14T06:39:29;10.87;;;6.20;;
23702;SDS011;12030;50.376;8.762;2022-11-14T06:41:54;9.00;;;6.47;;
23702;SDS011;12030;50.376;8.762;2022-11-14T06:44:20;6.73;;;5.07;;
23702;SDS011;12030;50.376;8.762;2022-11-14T06:46:45;8.73;;;5.50;;
23702;SDS011;12030;50.376;8.762;2022-11-14T06:49:11;6.97;;;5.33;;
23702;SDS011;12030;50.376;8.762;2022-11-14T06:51:36;6.60;;;5.83;;
23702;SDS011;12030;50.376;8.762;2022-11-14T06:54:02;9.00;;;7.00;;
23702;SDS011;12030;50.376;8.762;2022-11-14T06:56:28;11.27;;;7.63;;
23702;SDS011;12030;50.376;8.762;2022-11-14T06:58:53;8.80;;;7.17;;
23702;SDS011;12030;50.376;8.762;2022-11-14T07:01:20;7.77;;;4.40;;
23702;SDS011;12030;50.376;8.762;2022-11-14T07:03:47;6.50;;;5.03;;
23702;SDS011;12030;50.376;8.762;2022-11-14T07:06:17;8.07;;;5.67;;
23702;SDS011;12030;50.376;8.762;2022-11-14T07:08:45;6.47;;;5.13;;
23702;SDS011;12030;50.376;8.762;2022-11-14T07:11:11;7.40;;;5.63;;
23702;SDS011;12030;50.376;8.762;2022-11-14T07:16:16;7.27;;;5.67;;
23702;SDS011;12030;50.376;8.762;2022-11-14T07:18:42;7.10;;;5.47;;
23702;SDS011;12030;50.376;8.762;2022-11-14T07:21:08;9.63;;;6.00;;
23702;SDS011;12030;50.376;8.762;2022-11-14T07:23:33;7.43;;;5.50;;
23702;SDS011;12030;50.376;8.762;2022-11-14T07:26:00;7.17;;;5.37;;
23702;SDS011;12030;50.376;8.762;2022-11-14T07:28:27;7.47;;;5.53;;
23702;SDS011;12030;50.376;8.762;2022-11-14T07:30:52;6.27;;;5.30;;
23702;SDS011;12030;50.376;8.762;2022-11-14T07:33:18;6.57;;;5.13;;
23702;SDS011;12030;50.376;8.762;2022-11-14T07:35:43;9.87;;;5.90;;
23702;SDS011;12030;50.376;8.762;2022-11-14T07:38:09;6.47;;;5.57;;
23702;SDS011;12030;50.376;8.762;2022-11-14T07:40:34;8.30;;;6.40;;
23702;SDS011;12030;50.376;8.762;2022-11-14T07:43:00;9.57;;;6.27;;
23702;SDS011;12030;50.376;8.762;2022-11-14T07:45:27;8.77;;;6.33;;
23702;SDS011;12030;50.376;8.762;2022-11-14T07:47:56;9.17;;;6.30;;
23702;SDS011;12030;50.376;8.762;2022-11-14T07:50:24;9.63;;;6.40;;
23702;SDS011;12030;50.376;8.762;2022-11-14T07:52:51;11.13;;;5.73;;
23702;SDS011;12030;50.376;8.762;2022-11-14T07:55:18;10.83;;;6.10;;
23702;SDS011;12030;50.376;8.762;2022-11-14T07:57:44;9.90;;;6.43;;
23702;SDS011;12030;50.376;8.762;2022-11-14T08:00:10;7.90;;;6.53;;
23702;SDS011;12030;50.376;8.762;2022-11-14T08:02:36;8.00;;;6.57;;
23702;SDS011;12030;50.376;8.762;2022-11-14T08:05:01;8.00;;;6.40;;
23702;SDS011;12030;50.376;8.762;2022-11-14T08:07:27;9.67;;;6.87;;
23702;SDS011;12030;50.376;8.762;2022-11-14T08:09:53;10.30;;;7.00;;
23702;SDS011;12030;50.376;8.762;2022-11-14T08:12:18;10.43;;;7.60;;
23702;SDS011;12030;50.376;8.762;2022-11-14T08:14:44;8.57;;;7.20;;
23702;SDS011;12030;50.376;8.762;2022-11-14T08:17:09;8.80;;;7.77;;
23702;SDS011;12030;50.376;8.762;2022-11-14T08:19:35;9.60;;;7.33;;
23702;SDS011;12030;50.376;8.762;2022-11-14T08:22:00;10.80;;;8.10;;
23702;SDS011;12030;50.376;8.762;2022-11-14T08:24:26;9.60;;;8.03;;
23702;SDS011;12030;50.376;8.762;2022-11-14T08:26:51;11.73;;;8.87;;
23702;SDS011;12030;50.376;8.762;2022-11-14T08:29:17;12.80;;;10.13;;
23702;SDS011;12030;50.376;8.762;2022-11-14T08:31:44;15.00;;;9.03;;
23702;SDS011;12030;50.376;8.762;2022-11-14T08:34:10;11.47;;;8.50;;
23702;SDS011;12030;50.376;8.762;2022-11-14T08:36:35;9.90;;;7.47;;
23702;SDS011;12030;50.376;8.762;2022-11-14T08:39:01;8.77;;;7.70;;
23702;SDS011;12030;50.376;8.762;2022-11-14T08:41:27;8.50;;;7.57;;
23702;SDS011;12030;50.376;8.762;2022-11-14T08:43:52;8.93;;;7.33;;
23702;SDS011;12030;50.376;8.762;2022-11-14T08:46:18;8.23;;;7.23;;
23702;SDS011;12030;50.376;8.762;2022-11-14T08:48:43;9.83;;;7.60;;
23702;SDS011;12030;50.376;8.762;2022-11-14T08:51:09;8.87;;;7.70;;
23702;SDS011;12030;50.376;8.762;2022-11-14T08:53:34;10.53;;;7.93;;
23702;SDS011;12030;50.376;8.762;2022-11-14T08:56:00;11.07;;;8.77;;
23702;SDS011;12030;50.376;8.762;2022-11-14T08:58:26;10.23;;;8.40;;
23702;SDS011;12030;50.376;8.762;2022-11-14T09:00:53;10.43;;;9.03;;
23702;SDS011;12030;50.376;8.762;2022-11-14T09:03:22;12.93;;;10.67;;
23702;SDS011;12030;50.376;8.762;2022-11-14T09:05:51;18.13;;;12.30;;
23702;SDS011;12030;50.376;8.762;2022-11-14T09:08:17;14.40;;;12.80;;
23702;SDS011;12030;50.376;8.762;2022-11-14T09:10:43;20.03;;;12.73;;
23702;SDS011;12030;50.376;8.762;2022-11-14T09:13:09;14.93;;;12.43;;
23702;SDS011;12030;50.376;8.762;2022-11-14T09:15:34;14.20;;;12.67;;
23702;SDS011;12030;50.376;8.762;2022-11-14T09:18:00;16.43;;;12.93;;
23702;SDS011;12030;50.376;8.762;2022-11-14T09:20:26;15.00;;;13.33;;
23702;SDS011;12030;50.376;8.762;2022-11-14T09:22:54;16.27;;;14.57;;
23702;SDS011;12030;50.376;8.762;2022-11-14T09:25:22;17.67;;;14.40;;
23702;SDS011;12030;50.376;8.762;2022-11-14T09:27:48;17.60;;;14.80;;
23702;SDS011;12030;50.376;8.762;2022-11-14T09:30:13;15.67;;;14.00;;
23702;SDS011;12030;50.376;8.762;2022-11-14T09:32:39;18.57;;;16.00;;
23702;SDS011;12030;50.376;8.762;2022-11-14T09:35:05;19.87;;;16.87;;
23702;SDS011;12030;50.376;8.762;2022-11-14T09:37:30;19.50;;;16.07;;
23702;SDS011;12030;50.376;8.762;2022-11-14T09:39:56;18.23;;;15.10;;
23702;SDS011;12030;50.376;8.762;2022-11-14T09:45:12;16.87;;;13.93;;
23702;SDS011;12030;50.376;8.762;2022-11-14T09:47:42;16.77;;;14.83;;
23702;SDS011;12030;50.376;8.762;2022-11-14T09:56:00;18.07;;;15.53;;
23702;SDS011;12030;50.376;8.762;2022-11-14T09:58:26;16.87;;;14.90;;
23702;SDS011;12030;50.376;8.762;2022-11-14T10:00:53;18.43;;;15.00;;
23702;SDS011;12030;50.376;8.762;2022-11-14T10:03:29;16.03;;;13.83;;
23702;SDS011;12030;50.376;8.762;2022-11-14T10:06:31;15.90;;;13.43;;
23702;SDS011;12030;50.376;8.762;2022-11-14T10:20:00;13.23;;;11.83;;
23702;SDS011;12030;50.376;8.762;2022-11-14T10:22:43;14.47;;;11.77;;
23702;SDS011;12030;50.376;8.762;2022-11-14T10:25:36;11.87;;;10.57;;
23702;SDS011;12030;50.376;8.762;2022-11-14T10:36:51;13.00;;;11.43;;
23702;SDS011;12030;50.376;8.762;2022-11-14T10:42:08;11.87;;;10.67;;
23702;SDS011;12030;50.376;8.762;2022-11-14T10:44:41;11.90;;;10.70;;
23702;SDS011;12030;50.376;8.762;2022-11-14T10:47:14;12.50;;;11.20;;
23702;SDS011;12030;50.376;8.762;2022-11-14T10:49:45;11.40;;;10.23;;
23702;SDS011;12030;50.376;8.762;2022-11-14T10:52:16;11.83;;;10.23;;
23702;SDS011;12030;50.376;8.762;2022-11-14T10:57:18;12.23;;;11.03;;
23702;SDS011;12030;50.376;8.762;2022-11-14T10:59:45;11.90;;;10.70;;
23702;SDS011;12030;50.376;8.762;2022-11-14T11:02:11;12.63;;;11.20;;
23702;SDS011;12030;50.376;8.762;2022-11-14T11:04:38;11.57;;;10.37;;
23702;SDS011;12030;50.376;8.762;2022-11-14T11:09:34;12.87;;;11.57;;
23702;SDS011;12030;50.376;8.762;2022-11-14T11:12:21;13.93;;;11.07;;
23702;SDS011;12030;50.376;8.762;2022-11-14T11:14:49;12.77;;;11.17;;
23702;SDS011;12030;50.376;8.762;2022-11-14T11:17:37;11.40;;;10.20;;
23702;SDS011;12030;50.376;8.762;2022-11-14T11:20:24;11.47;;;10.27;;
23702;SDS011;12030;50.376;8.762;2022-11-14T11:23:00;14.53;;;10.80;;
23702;SDS011;12030;50.376;8.762;2022-11-14T11:25:28;12.30;;;10.97;;
23702;SDS011;12030;50.376;8.762;2022-11-14T11:30:36;11.73;;;10.53;;
23702;SDS011;12030;50.376;8.762;2022-11-14T11:35:47;10.83;;;9.73;;
23702;SDS011;12030;50.376;8.762;2022-11-14T11:38:15;10.50;;;9.40;;
23702;SDS011;12030;50.376;8.762;2022-11-14T11:40:43;12.33;;;9.67;;
23702;SDS011;12030;50.376;8.762;2022-11-14T11:43:16;10.47;;;9.37;;
23702;SDS011;12030;50.376;8.762;2022-11-14T11:45:58;11.13;;;9.93;;
23702;SDS011;12030;50.376;8.762;2022-11-14T11:48:33;10.20;;;9.13;;
23702;SDS011;12030;50.376;8.762;2022-11-14T11:51:02;9.73;;;8.70;;
23702;SDS011;12030;50.376;8.762;2022-11-14T11:53:37;12.40;;;9.57;;
23702;SDS011;12030;50.376;8.762;2022-11-14T11:56:13;10.97;;;9.33;;
23702;SDS011;12030;50.376;8.762;2022-11-14T11:58:50;10.90;;;9.77;;
23702;SDS011;12030;50.376;8.762;2022-11-14T12:01:19;10.70;;;9.60;;
23702;SDS011;12030;50.376;8.762;2022-11-14T12:03:53;10.10;;;8.67;;
23702;SDS011;12030;50.376;8.762;2022-11-14T12:06:20;10.73;;;9.63;;
23702;SDS011;12030;50.376;8.762;2022-11-14T12:09:05;11.57;;;9.50;;
23702;SDS011;12030;50.376;8.762;2022-11-14T12:11:39;10.27;;;9.27;;
23702;SDS011;12030;50.376;8.762;2022-11-14T12:31:09;10.43;;;9.27;;
23702;SDS011;12030;50.376;8.762;2022-11-14T12:33:41;11.23;;;9.17;;
23702;SDS011;12030;50.376;8.762;2022-11-14T12:36:10;10.50;;;9.00;;
23702;SDS011;12030;50.376;8.762;2022-11-14T12:38:41;12.97;;;9.83;;
23702;SDS011;12030;50.376;8.762;2022-11-14T12:41:07;11.77;;;9.20;;
23702;SDS011;12030;50.376;8.762;2022-11-14T12:43:35;10.67;;;9.07;;
23702;SDS011;12030;50.376;8.762;2022-11-14T12:46:04;10.83;;;9.23;;
23702;SDS011;12030;50.376;8.762;2022-11-14T12:48:40;9.70;;;8.70;;
23702;SDS011;12030;50.376;8.762;2022-11-14T12:53:51;10.87;;;9.40;;
23702;SDS011;12030;50.376;8.762;2022-11-14T13:01:52;10.27;;;9.17;;
23702;SDS011;12030;50.376;8.762;2022-11-14T13:07:32;10.63;;;9.20;;
23702;SDS011;12030;50.376;8.762;2022-11-14T13:15:51;9.53;;;8.37;;
23702;SDS011;12030;50.376;8.762;2022-11-14T13:27:25;5.20;;;4.70;;
23702;SDS011;12030;50.376;8.762;2022-11-14T13:29:56;6.40;;;4.83;;
23702;SDS011;12030;50.376;8.762;2022-11-14T13:35:10;5.60;;;5.10;;
23702;SDS011;12030;50.376;8.762;2022-11-14T13:40:33;6.53;;;5.87;;
23702;SDS011;12030;50.376;8.762;2022-11-14T13:43:11;6.83;;;6.13;;
23702;SDS011;12030;50.376;8.762;2022-11-14T13:45:59;7.23;;;6.53;;
23702;SDS011;12030;50.376;8.762;2022-11-14T13:48:45;7.17;;;6.47;;
23702;SDS011;12030;50.376;8.762;2022-11-14T13:51:30;7.00;;;5.97;;
23702;SDS011;12030;50.376;8.762;2022-11-14T13:53:57;8.33;;;7.43;;
23702;SDS011;12030;50.376;8.762;2022-11-14T14:07:49;7.87;;;5.67;;
23702;SDS011;12030;50.376;8.762;2022-11-14T14:10:32;7.27;;;5.50;;
23702;SDS011;12030;50.376;8.762;2022-11-14T14:16:12;6.83;;;5.67;;
23702;SDS011;12030;50.376;8.762;2022-11-14T14:18:57;6.10;;;5.50;;
23702;SDS011;12030;50.376;8.762;2022-11-14T14:24:45;6.27;;;5.70;;
23702;SDS011;12030;50.376;8.762;2022-11-14T14:32:33;6.33;;;5.70;;
23702;SDS011;12030;50.376;8.762;2022-11-14T14:34:58;7.17;;;6.47;;
23702;SDS011;12030;50.376;8.762;2022-11-14T14:37:28;7.30;;;6.60;;
23702;SDS011;12030;50.376;8.762;2022-11-14T14:40:01;7.50;;;6.80;;
23702;SDS011;12030;50.376;8.762;2022-11-14T14:42:33;9.47;;;8.30;;
23702;SDS011;12030;50.376;8.762;2022-11-14T14:45:02;8.17;;;6.70;;
23702;SDS011;12030;50.376;8.762;2022-11-14T14:47:33;6.43;;;5.83;;
23702;SDS011;12030;50.376;8.762;2022-11-14T14:50:04;6.40;;;5.80;;
23702;SDS011;12030;50.376;8.762;2022-11-14T14:52:37;7.27;;;6.07;;
23702;SDS011;12030;50.376;8.762;2022-11-14T14:55:04;6.17;;;5.50;;
23702;SDS011;12030;50.376;8.762;2022-11-14T14:57:32;7.50;;;5.13;;
23702;SDS011;12030;50.376;8.762;2022-11-14T14:59:59;6.00;;;5.40;;
23702;SDS011;12030;50.376;8.762;2022-11-14T15:02:26;6.17;;;5.57;;
23702;SDS011;12030;50.376;8.762;2022-11-14T15:04:53;6.70;;;5.57;;
23702;SDS011;12030;50.376;8.762;2022-11-14T15:07:20;7.93;;;5.33;;
23702;SDS011;12030;50.376;8.762;2022-11-14T15:09:55;6.20;;;5.60;;
23702;SDS011;12030;50.376;8.762;2022-11-14T15:12:23;6.53;;;5.30;;
23702;SDS011;12030;50.376;8.762;2022-11-14T15:14:51;6.53;;;5.93;;
23702;SDS011;12030;50.376;8.762;2022-11-14T15:17:18;5.17;;;4.67;;
23702;SDS011;12030;50.376;8.762;2022-11-14T15:19:45;5.57;;;4.90;;
23702;SDS011;12030;50.376;8.762;2022-11-14T15:24:39;7.37;;;5.43;;
23702;SDS011;12030;50.376;8.762;2022-11-14T15:27:10;5.83;;;5.23;;
23702;SDS011;12030;50.376;8.762;2022-11-14T15:29:35;5.73;;;5.13;;
23702;SDS011;12030;50.376;8.762;2022-11-14T15:39:04;8.07;;;5.80;;
23702;SDS011;12030;50.376;8.762;2022-11-14T15:42:10;6.03;;;5.37;;
23702;SDS011;12030;50.376;8.762;2022-11-14T15:44:48;5.63;;;5.10;;
23702;SDS011;12030;50.376;8.762;2022-11-14T15:47:19;5.80;;;5.20;;
23702;SDS011;12030;50.376;8.762;2022-11-14T15:49:53;5.67;;;5.17;;
23702;SDS011;12030;50.376;8.762;2022-11-14T15:52:24;5.40;;;4.90;;
23702;SDS011;12030;50.376;8.762;2022-11-14T15:54:56;6.00;;;5.30;;
23702;SDS011;12030;50.376;8.762;2022-11-14T15:57:22;6.87;;;5.27;;
23702;SDS011;12030;50.376;8.762;2022-11-14T15:59:47;7.37;;;5.47;;
23702;SDS011;12030;50.376;8.762;2022-11-14T16:02:27;6.03;;;5.13;;
23702;SDS011;12030;50.376;8.762;2022-11-14T16:04:55;5.97;;;5.20;;
23702;SDS011;12030;50.376;8.762;2022-11-14T16:07:22;6.40;;;5.23;;
23702;SDS011;12030;50.376;8.762;2022-11-14T16:09:47;6.93;;;5.00;;
23702;SDS011;12030;50.376;8.762;2022-11-14T16:21:46;5.07;;;4.57;;
23702;SDS011;12030;50.376;8.762;2022-11-14T16:24:13;5.10;;;4.60;;
23702;SDS011;12030;50.376;8.762;2022-11-14T16:26:43;6.90;;;4.93;;
23702;SDS011;12030;50.376;8.762;2022-11-14T16:29:08;5.53;;;4.80;;
23702;SDS011;12030;50.376;8.762;2022-11-14T16:31:34;5.23;;;4.73;;
23702;SDS011;12030;50.376;8.762;2022-11-14T16:34:00;4.73;;;4.23;;
23702;SDS011;12030;50.376;8.762;2022-11-14T16:36:26;5.27;;;4.30;;
23702;SDS011;12030;50.376;8.762;2022-11-14T16:38:52;5.60;;;4.97;;
23702;SDS011;12030;50.376;8.762;2022-11-14T16:41:23;6.23;;;4.60;;
23702;SDS011;12030;50.376;8.762;2022-11-14T16:43:49;5.63;;;5.03;;
23702;SDS011;12030;50.376;8.762;2022-11-14T16:46:18;5.27;;;4.77;;
23702;SDS011;12030;50.376;8.762;2022-11-14T16:48:43;5.63;;;4.80;;
23702;SDS011;12030;50.376;8.762;2022-11-14T16:51:09;5.30;;;4.80;;
23702;SDS011;12030;50.376;8.762;2022-11-14T16:53:34;5.33;;;4.83;;
23702;SDS011;12030;50.376;8.762;2022-11-14T16:56:01;6.43;;;5.07;;
23702;SDS011;12030;50.376;8.762;2022-11-14T16:58:26;5.47;;;4.93;;
23702;SDS011;12030;50.376;8.762;2022-11-14T17:00:52;6.03;;;5.03;;
23702;SDS011;12030;50.376;8.762;2022-11-14T17:03:17;5.10;;;4.70;;
23702;SDS011;12030;50.376;8.762;2022-11-14T17:05:44;7.80;;;5.00;;
23702;SDS011;12030;50.376;8.762;2022-11-14T17:08:11;5.70;;;5.10;;
23702;SDS011;12030;50.376;8.762;2022-11-14T17:10:40;6.60;;;5.77;;